Kyokusho Maru — JL6605 — position and weather

sailwx.info

Track history (hours):
 
Tides and Currents Weather Stations Pressure Air Temp Water Temp Dewpoint Dewpoint Depression Visibility Wind Speed Wind Dir Waves Ship Positions

Kyokusho Maru

Last reported at 2018-Apr-26 08:28 UTC. Time now 2018-Apr-26 13:16 UTC.
Position N 34°31' E 138°10'.

Length 77 m; draft 5.4 m.

Type: Tanker. MMSI: 431501667.

Date/timePositionNaut miles runAvg speedWind from/ knotsBaromVisibWave heightAir tempDewpointWater temp
2018-Apr-26 08:28N 34°31' E 138°10'510.9
2018-Apr-26 07:59N 34°31' E 138°16'611.1
2018-Apr-26 07:28N 34°31' E 138°23'511.7
2018-Apr-26 07:00N 34°31' E 138°30'611.3
2018-Apr-26 06:28N 34°31' E 138°37'1611.0
2018-Apr-26 05:04N 34°32' E 138°56'110.3
2018-Apr-26 05:00N 34°32' E 138°56'5 9.8
2018-Apr-26 04:27N 34°35' E 139°02'510.0
2018-Apr-26 04:00N 34°39' E 139°06'26 9.4
2018-Apr-26 01:13N 34°56' E 139°30'210.4
2018-Apr-26 01:00N 34°57' E 139°32'510.8
2018-Apr-26 00:31N 35°01' E 139°36'611.7
2018-Apr-26 00:00N 35°04' E 139°42'611.8
2018-Apr-25 23:31N 35°10' E 139°45'612.1
2018-Apr-25 23:00N 35°16' E 139°46'612.2
2018-Apr-25 22:30N 35°21' E 139°42'611.9
2018-Apr-25 22:00N 35°26' E 139°46'612.8
2018-Apr-25 21:30N 35°30' E 139°53'611.0
2018-Apr-25 21:00N 35°32' E 139°59'0 0.1
2018-Apr-25 20:30N 35°32' E 139°59'0 0.0
2018-Apr-25 19:57N 35°32' E 139°59'0 0.0
2018-Apr-25 17:57N 35°32' E 139°59'0 0.0
2018-Apr-25 17:27N 35°32' E 139°59'0 0.0
2018-Apr-25 17:00N 35°32' E 139°59'0 0.0
2018-Apr-25 16:24N 35°32' E 139°59'0 0.0
2018-Apr-25 15:57N 35°32' E 139°59'0 0.0
2018-Apr-25 15:27N 35°32' E 139°59'0 0.0
2018-Apr-25 14:54N 35°32' E 139°59'0 0.2
2018-Apr-25 14:21N 35°32' E 139°59'0 0.0
2018-Apr-25 14:00N 35°32' E 139°59'0 0.1
2018-Apr-25 13:21N 35°32' E 139°59'0 0.0
2018-Apr-25 12:57N 35°32' E 139°59'0 0.0
2018-Apr-25 12:27N 35°32' E 139°59'0 0.0
2018-Apr-25 12:00N 35°32' E 139°59'0 0.0
2018-Apr-25 11:27N 35°32' E 139°59'0 0.0
2018-Apr-25 10:57N 35°32' E 139°59'0 0.0
2018-Apr-25 10:30N 35°32' E 139°59'0 0.0
2018-Apr-25 09:57N 35°32' E 139°59'0 0.0
2018-Apr-25 09:27N 35°32' E 139°59'0 0.0
2018-Apr-25 08:57N 35°32' E 139°59'0 0.0
2018-Apr-25 08:27N 35°32' E 139°59'0 0.1
2018-Apr-25 07:57N 35°32' E 139°59'0 0.1
2018-Apr-25 06:39N 35°32' E 139°59'0 0.0
2018-Apr-25 06:15N 35°32' E 139°59'0 0.0
2018-Apr-25 05:57N 35°32' E 139°59'0 0.1
2018-Apr-25 05:27N 35°32' E 139°59'0 0.0
2018-Apr-25 05:00N 35°32' E 139°59'0 0.0
2018-Apr-25 04:24N 35°32' E 139°59'0 0.0
2018-Apr-25 03:57N 35°32' E 139°59'0 0.1
2018-Apr-25 03:27N 35°32' E 139°59'2 5.4
2018-Apr-25 03:00N 35°30' E 140°01'1 0.4
2018-Apr-25 00:18N 35°30' E 140°02'0 0.0
2018-Apr-25 00:00N 35°30' E 140°02'0 0.0
2018-Apr-24 23:30N 35°30' E 140°02'0 0.0
2018-Apr-24 23:00N 35°30' E 140°02'1 1.6
2018-Apr-24 22:30N 35°30' E 140°01'2 3.2
2018-Apr-24 21:56N 35°31' E 139°59'0 0.0
2018-Apr-24 21:17N 35°31' E 139°59'0 0.0
2018-Apr-24 20:50N 35°31' E 139°59'0 0.0
2018-Apr-24 20:26N 35°31' E 139°59'0 0.0
2018-Apr-24 19:56N 35°31' E 139°59'0 0.0
2018-Apr-24 19:26N 35°31' E 139°59'0 0.0
2018-Apr-24 18:56N 35°31' E 139°59'0 0.0
2018-Apr-24 18:26N 35°31' E 139°59'0 0.0
2018-Apr-24 17:56N 35°31' E 139°59'0 0.0
2018-Apr-24 17:23N 35°31' E 139°59'0 0.0
2018-Apr-24 16:56N 35°31' E 139°59'0 0.0
2018-Apr-24 16:29N 35°31' E 139°59'0 0.0
2018-Apr-24 15:56N 35°31' E 139°59'0 0.0
2018-Apr-24 15:26N 35°31' E 139°59'0 0.0
2018-Apr-24 14:56N 35°31' E 139°59'0 0.0
2018-Apr-24 14:29N 35°31' E 139°59'3 7.0
2018-Apr-24 14:00N 35°30' E 139°56'713.1
2018-Apr-24 13:31N 35°26' E 139°49'713.0
2018-Apr-24 13:01N 35°21' E 139°45'612.2
2018-Apr-24 12:30N 35°15' E 139°47'612.9
2018-Apr-24 12:00N 35°09' E 139°45'612.8
2018-Apr-24 11:30N 35°04' E 139°40'714.5
2018-Apr-24 11:00N 34°59' E 139°33'915.8
2018-Apr-24 10:27N 34°53' E 139°25'716.1
2018-Apr-24 10:00N 34°49' E 139°18'1115.5
2018-Apr-24 09:17N 34°41' E 139°09'515.7
2018-Apr-24 08:59N 34°38' E 139°04'715.8
2018-Apr-24 08:31N 34°32' E 138°58'19811.7
2018-Apr-23 15:34N 33°47' E 135°05'113.1
2018-Apr-23 15:29N 33°48' E 135°04'612.7
2018-Apr-23 15:01N 33°52' E 134°60'612.1
2018-Apr-23 14:31N 33°58' E 134°59'612.3
2018-Apr-23 14:00N 34°04' E 134°58'713.2
2018-Apr-23 13:30N 34°11' E 134°58'714.1
2018-Apr-23 13:00N 34°18' E 134°58'713.5
2018-Apr-23 12:30N 34°24' E 135°00'713.3
2018-Apr-23 12:00N 34°31' E 135°02'612.4
2018-Apr-23 11:30N 34°37' E 135°00'815.4
2018-Apr-23 11:00N 34°34' E 134°52'714.1
2018-Apr-23 10:30N 34°32' E 134°44'713.5
2018-Apr-23 10:00N 34°29' E 134°36'713.5
2018-Apr-23 09:30N 34°27' E 134°28'1412.7
2018-Apr-23 08:26N 34°24' E 134°12'  
2018-Apr-20 10:48N 34°05' E 132°50'513.2
2018-Apr-20 10:24N 34°01' E 132°46'512.6
2018-Apr-20 10:00N 33°57' E 132°42'912.0
2018-Apr-20 09:18N 33°51' E 132°35'512.1
2018-Apr-20 08:54N 33°48' E 132°30'712.2
2018-Apr-20 08:20N 33°45' E 132°23'812.3
2018-Apr-20 07:41N 33°43' E 132°14'212.5
2018-Apr-20 07:30N 33°42' E 132°11'612.1
2018-Apr-20 07:01N 33°42' E 132°04'713.1
2018-Apr-20 06:30N 33°43' E 131°56'713.5
2018-Apr-20 06:01N 33°45' E 131°48'714.3
2018-Apr-20 05:30N 33°46' E 131°40'714.2
2018-Apr-20 05:01N 33°48' E 131°31'714.1
2018-Apr-20 04:30N 33°49' E 131°23'714.0
2018-Apr-20 04:00N 33°51' E 131°15'713.5
2018-Apr-20 03:30N 33°54' E 131°08'612.8
2018-Apr-20 03:00N 33°58' E 131°02'2 3.8
2018-Apr-20 02:23N 33°60' E 131°00'0 0.0
2018-Apr-20 01:53N 33°60' E 131°00'0 0.0
2018-Apr-20 01:29N 33°60' E 131°00'0 0.0
2018-Apr-20 00:59N 33°60' E 131°00'0 0.0
2018-Apr-20 00:29N 33°60' E 131°00'0 0.0
2018-Apr-19 23:59N 33°60' E 131°00'0 0.0
2018-Apr-19 23:29N 33°60' E 131°00'0 0.0
2018-Apr-19 22:59N 33°60' E 131°00'0 0.5
2018-Apr-19 22:30N 33°60' E 131°00'4 7.0
2018-Apr-19 22:00N 33°57' E 131°03'2 3.7
2018-Apr-19 21:30N 33°55' E 131°04'0 0.0
2018-Apr-19 21:00N 33°55' E 131°04'0 0.1
2018-Apr-19 20:30N 33°55' E 131°04'0 0.0
2018-Apr-19 19:54N 33°55' E 131°04'0 0.0
2018-Apr-19 19:30N 33°55' E 131°04'0 0.0
2018-Apr-19 18:57N 33°55' E 131°04'0 0.0
2018-Apr-19 18:27N 33°55' E 131°04'0 0.1
2018-Apr-19 18:00N 33°55' E 131°04'0 0.1
2018-Apr-19 17:30N 33°55' E 131°04'0 0.0
2018-Apr-19 17:00N 33°55' E 131°04'0 0.1
2018-Apr-19 16:30N 33°55' E 131°04'0 0.1
2018-Apr-19 15:54N 33°55' E 131°04'0 0.0
2018-Apr-19 15:30N 33°55' E 131°04'0 0.0
2018-Apr-19 15:00N 33°55' E 131°04'0 0.0
2018-Apr-19 14:30N 33°55' E 131°04'0 0.1
2018-Apr-19 14:00N 33°55' E 131°04'0 0.0
2018-Apr-19 13:30N 33°55' E 131°04'0 0.0
2018-Apr-19 13:00N 33°55' E 131°04'0 0.1
2018-Apr-19 12:30N 33°55' E 131°04'0 0.0
2018-Apr-19 12:00N 33°55' E 131°04'0 0.0
2018-Apr-19 11:30N 33°55' E 131°04'0 0.0
2018-Apr-19 11:00N 33°55' E 131°04'0 0.1
2018-Apr-19 10:30N 33°55' E 131°04'0 0.1
2018-Apr-19 10:00N 33°55' E 131°04'0 0.0
2018-Apr-19 09:30N 33°55' E 131°04'0 0.0
2018-Apr-19 09:00N 33°55' E 131°04'3 6.4
2018-Apr-19 08:30N 33°54' E 131°07'611.5
2018-Apr-19 08:00N 33°51' E 131°13'611.4
2018-Apr-19 07:30N 33°52' E 131°19'611.3
2018-Apr-19 07:00N 33°54' E 131°26'611.4
2018-Apr-19 06:28N 33°56' E 131°33'511.4
2018-Apr-19 06:00N 33°57' E 131°39'9 1.6
2018-Apr-19 00:14N 34°02' E 131°48'0 0.3
2018-Apr-18 22:45N 34°02' E 131°48'0 0.0
2018-Apr-18 22:27N 34°02' E 131°48'1 1.4
2018-Apr-18 21:57N 34°01' E 131°48'1 0.0
2018-Apr-17 00:24N 34°03' E 131°48'0 0.5
2018-Apr-16 23:59N 34°03' E 131°47'2 3.5
2018-Apr-16 23:21N 34°01' E 131°46'0 0.0
2018-Apr-16 21:27N 34°01' E 131°46'0 0.0
2018-Apr-16 18:57N 34°01' E 131°46'0 0.0
2018-Apr-16 17:27N 34°01' E 131°46'0 0.0
2018-Apr-16 16:57N 34°01' E 131°46'0 0.0
2018-Apr-16 16:09N 34°01' E 131°46'0 0.0
2018-Apr-16 15:57N 34°01' E 131°46'0 0.0
2018-Apr-16 15:27N 34°01' E 131°46'0 0.0
2018-Apr-16 14:45N 34°01' E 131°46'0 0.0
2018-Apr-16 14:27N 34°01' E 131°46'1 2.4
2018-Apr-16 14:00N 33°60' E 131°45'611.2
2018-Apr-16 13:30N 33°55' E 131°48'713.0
2018-Apr-16 12:57N 33°51' E 131°55'613.1
2018-Apr-16 12:28N 33°47' E 132°01'1111.5
2018-Apr-16 11:32N 33°50' E 132°13'113.0
2018-Apr-16 11:29N 33°50' E 132°14'612.4
2018-Apr-16 11:00N 33°50' E 132°21'812.1
2018-Apr-16 10:22N 33°53' E 132°30'712.5
2018-Apr-16 09:47N 33°55' E 132°38'312.0
2018-Apr-16 09:30N 33°57' E 132°41'  
Track history (hours):
 
Tides and Currents Weather Stations Pressure Air Temp Water Temp Dewpoint Dewpoint Depression Visibility Wind Speed Wind Dir Waves Ship Positions

Kyokusho Maru

Last reported at 2018-Apr-26 08:28 UTC. Time now 2018-Apr-26 13:16 UTC.
Position N 34°31' E 138°10'.

Length 77 m; draft 5.4 m.

Type: Tanker. MMSI: 431501667.

Date/timePositionNaut miles runAvg speedWind from/ knotsBaromVisibWave heightAir tempDewpointWater temp
2018-Apr-26 08:28N 34°31' E 138°10'510.9
2018-Apr-26 07:59N 34°31' E 138°16'611.1
2018-Apr-26 07:28N 34°31' E 138°23'511.7
2018-Apr-26 07:00N 34°31' E 138°30'611.3
2018-Apr-26 06:28N 34°31' E 138°37'1611.0
2018-Apr-26 05:04N 34°32' E 138°56'110.3
2018-Apr-26 05:00N 34°32' E 138°56'5 9.8
2018-Apr-26 04:27N 34°35' E 139°02'510.0
2018-Apr-26 04:00N 34°39' E 139°06'26 9.4
2018-Apr-26 01:13N 34°56' E 139°30'210.4
2018-Apr-26 01:00N 34°57' E 139°32'510.8
2018-Apr-26 00:31N 35°01' E 139°36'611.7
2018-Apr-26 00:00N 35°04' E 139°42'611.8
2018-Apr-25 23:31N 35°10' E 139°45'612.1
2018-Apr-25 23:00N 35°16' E 139°46'612.2
2018-Apr-25 22:30N 35°21' E 139°42'611.9
2018-Apr-25 22:00N 35°26' E 139°46'612.8
2018-Apr-25 21:30N 35°30' E 139°53'611.0
2018-Apr-25 21:00N 35°32' E 139°59'0 0.1
2018-Apr-25 20:30N 35°32' E 139°59'0 0.0
2018-Apr-25 19:57N 35°32' E 139°59'0 0.0
2018-Apr-25 17:57N 35°32' E 139°59'0 0.0
2018-Apr-25 17:27N 35°32' E 139°59'0 0.0
2018-Apr-25 17:00N 35°32' E 139°59'0 0.0
2018-Apr-25 16:24N 35°32' E 139°59'0 0.0
2018-Apr-25 15:57N 35°32' E 139°59'0 0.0
2018-Apr-25 15:27N 35°32' E 139°59'0 0.0
2018-Apr-25 14:54N 35°32' E 139°59'0 0.2
2018-Apr-25 14:21N 35°32' E 139°59'0 0.0
2018-Apr-25 14:00N 35°32' E 139°59'0 0.1
2018-Apr-25 13:21N 35°32' E 139°59'0 0.0
2018-Apr-25 12:57N 35°32' E 139°59'0 0.0
2018-Apr-25 12:27N 35°32' E 139°59'0 0.0
2018-Apr-25 12:00N 35°32' E 139°59'0 0.0
2018-Apr-25 11:27N 35°32' E 139°59'0 0.0
2018-Apr-25 10:57N 35°32' E 139°59'0 0.0
2018-Apr-25 10:30N 35°32' E 139°59'0 0.0
2018-Apr-25 09:57N 35°32' E 139°59'0 0.0
2018-Apr-25 09:27N 35°32' E 139°59'0 0.0
2018-Apr-25 08:57N 35°32' E 139°59'0 0.0
2018-Apr-25 08:27N 35°32' E 139°59'0 0.1
2018-Apr-25 07:57N 35°32' E 139°59'0 0.1
2018-Apr-25 06:39N 35°32' E 139°59'0 0.0
2018-Apr-25 06:15N 35°32' E 139°59'0 0.0
2018-Apr-25 05:57N 35°32' E 139°59'0 0.1
2018-Apr-25 05:27N 35°32' E 139°59'0 0.0
2018-Apr-25 05:00N 35°32' E 139°59'0 0.0
2018-Apr-25 04:24N 35°32' E 139°59'0 0.0
2018-Apr-25 03:57N 35°32' E 139°59'0 0.1
2018-Apr-25 03:27N 35°32' E 139°59'2 5.4
2018-Apr-25 03:00N 35°30' E 140°01'1 0.4
2018-Apr-25 00:18N 35°30' E 140°02'0 0.0
2018-Apr-25 00:00N 35°30' E 140°02'0 0.0
2018-Apr-24 23:30N 35°30' E 140°02'0 0.0
2018-Apr-24 23:00N 35°30' E 140°02'1 1.6
2018-Apr-24 22:30N 35°30' E 140°01'2 3.2
2018-Apr-24 21:56N 35°31' E 139°59'0 0.0
2018-Apr-24 21:17N 35°31' E 139°59'0 0.0
2018-Apr-24 20:50N 35°31' E 139°59'0 0.0
2018-Apr-24 20:26N 35°31' E 139°59'0 0.0
2018-Apr-24 19:56N 35°31' E 139°59'0 0.0
2018-Apr-24 19:26N 35°31' E 139°59'0 0.0
2018-Apr-24 18:56N 35°31' E 139°59'0 0.0
2018-Apr-24 18:26N 35°31' E 139°59'0 0.0
2018-Apr-24 17:56N 35°31' E 139°59'0 0.0
2018-Apr-24 17:23N 35°31' E 139°59'0 0.0
2018-Apr-24 16:56N 35°31' E 139°59'0 0.0
2018-Apr-24 16:29N 35°31' E 139°59'0 0.0
2018-Apr-24 15:56N 35°31' E 139°59'0 0.0
2018-Apr-24 15:26N 35°31' E 139°59'0 0.0
2018-Apr-24 14:56N 35°31' E 139°59'0 0.0
2018-Apr-24 14:29N 35°31' E 139°59'3 7.0
2018-Apr-24 14:00N 35°30' E 139°56'713.1
2018-Apr-24 13:31N 35°26' E 139°49'713.0
2018-Apr-24 13:01N 35°21' E 139°45'612.2
2018-Apr-24 12:30N 35°15' E 139°47'612.9
2018-Apr-24 12:00N 35°09' E 139°45'612.8
2018-Apr-24 11:30N 35°04' E 139°40'714.5
2018-Apr-24 11:00N 34°59' E 139°33'915.8
2018-Apr-24 10:27N 34°53' E 139°25'716.1
2018-Apr-24 10:00N 34°49' E 139°18'1115.5
2018-Apr-24 09:17N 34°41' E 139°09'515.7
2018-Apr-24 08:59N 34°38' E 139°04'715.8
2018-Apr-24 08:31N 34°32' E 138°58'19811.7
2018-Apr-23 15:34N 33°47' E 135°05'113.1
2018-Apr-23 15:29N 33°48' E 135°04'612.7
2018-Apr-23 15:01N 33°52' E 134°60'612.1
2018-Apr-23 14:31N 33°58' E 134°59'612.3
2018-Apr-23 14:00N 34°04' E 134°58'713.2
2018-Apr-23 13:30N 34°11' E 134°58'714.1
2018-Apr-23 13:00N 34°18' E 134°58'713.5
2018-Apr-23 12:30N 34°24' E 135°00'713.3
2018-Apr-23 12:00N 34°31' E 135°02'612.4
2018-Apr-23 11:30N 34°37' E 135°00'815.4
2018-Apr-23 11:00N 34°34' E 134°52'714.1
2018-Apr-23 10:30N 34°32' E 134°44'713.5
2018-Apr-23 10:00N 34°29' E 134°36'713.5
2018-Apr-23 09:30N 34°27' E 134°28'1412.7
2018-Apr-23 08:26N 34°24' E 134°12'  
2018-Apr-20 10:48N 34°05' E 132°50'513.2
2018-Apr-20 10:24N 34°01' E 132°46'512.6
2018-Apr-20 10:00N 33°57' E 132°42'912.0
2018-Apr-20 09:18N 33°51' E 132°35'512.1
2018-Apr-20 08:54N 33°48' E 132°30'712.2
2018-Apr-20 08:20N 33°45' E 132°23'812.3
2018-Apr-20 07:41N 33°43' E 132°14'212.5
2018-Apr-20 07:30N 33°42' E 132°11'612.1
2018-Apr-20 07:01N 33°42' E 132°04'713.1
2018-Apr-20 06:30N 33°43' E 131°56'713.5
2018-Apr-20 06:01N 33°45' E 131°48'714.3
2018-Apr-20 05:30N 33°46' E 131°40'714.2
2018-Apr-20 05:01N 33°48' E 131°31'714.1
2018-Apr-20 04:30N 33°49' E 131°23'714.0
2018-Apr-20 04:00N 33°51' E 131°15'713.5
2018-Apr-20 03:30N 33°54' E 131°08'612.8
2018-Apr-20 03:00N 33°58' E 131°02'2 3.8
2018-Apr-20 02:23N 33°60' E 131°00'0 0.0
2018-Apr-20 01:53N 33°60' E 131°00'0 0.0
2018-Apr-20 01:29N 33°60' E 131°00'0 0.0
2018-Apr-20 00:59N 33°60' E 131°00'0 0.0
2018-Apr-20 00:29N 33°60' E 131°00'0 0.0
2018-Apr-19 23:59N 33°60' E 131°00'0 0.0
2018-Apr-19 23:29N 33°60' E 131°00'0 0.0
2018-Apr-19 22:59N 33°60' E 131°00'0 0.5
2018-Apr-19 22:30N 33°60' E 131°00'4 7.0
2018-Apr-19 22:00N 33°57' E 131°03'2 3.7
2018-Apr-19 21:30N 33°55' E 131°04'0 0.0
2018-Apr-19 21:00N 33°55' E 131°04'0 0.1
2018-Apr-19 20:30N 33°55' E 131°04'0 0.0
2018-Apr-19 19:54N 33°55' E 131°04'0 0.0
2018-Apr-19 19:30N 33°55' E 131°04'0 0.0
2018-Apr-19 18:57N 33°55' E 131°04'0 0.0
2018-Apr-19 18:27N 33°55' E 131°04'0 0.1
2018-Apr-19 18:00N 33°55' E 131°04'0 0.1
2018-Apr-19 17:30N 33°55' E 131°04'0 0.0
2018-Apr-19 17:00N 33°55' E 131°04'0 0.1
2018-Apr-19 16:30N 33°55' E 131°04'0 0.1
2018-Apr-19 15:54N 33°55' E 131°04'0 0.0
2018-Apr-19 15:30N 33°55' E 131°04'0 0.0
2018-Apr-19 15:00N 33°55' E 131°04'0 0.0
2018-Apr-19 14:30N 33°55' E 131°04'0 0.1
2018-Apr-19 14:00N 33°55' E 131°04'0 0.0
2018-Apr-19 13:30N 33°55' E 131°04'0 0.0
2018-Apr-19 13:00N 33°55' E 131°04'0 0.1
2018-Apr-19 12:30N 33°55' E 131°04'0 0.0
2018-Apr-19 12:00N 33°55' E 131°04'0 0.0
2018-Apr-19 11:30N 33°55' E 131°04'0 0.0
2018-Apr-19 11:00N 33°55' E 131°04'0 0.1
2018-Apr-19 10:30N 33°55' E 131°04'0 0.1
2018-Apr-19 10:00N 33°55' E 131°04'0 0.0
2018-Apr-19 09:30N 33°55' E 131°04'0 0.0
2018-Apr-19 09:00N 33°55' E 131°04'3 6.4
2018-Apr-19 08:30N 33°54' E 131°07'611.5
2018-Apr-19 08:00N 33°51' E 131°13'611.4
2018-Apr-19 07:30N 33°52' E 131°19'611.3
2018-Apr-19 07:00N 33°54' E 131°26'611.4
2018-Apr-19 06:28N 33°56' E 131°33'511.4
2018-Apr-19 06:00N 33°57' E 131°39'9 1.6
2018-Apr-19 00:14N 34°02' E 131°48'0 0.3
2018-Apr-18 22:45N 34°02' E 131°48'0 0.0
2018-Apr-18 22:27N 34°02' E 131°48'1 1.4
2018-Apr-18 21:57N 34°01' E 131°48'1 0.0
2018-Apr-17 00:24N 34°03' E 131°48'0 0.5
2018-Apr-16 23:59N 34°03' E 131°47'2 3.5
2018-Apr-16 23:21N 34°01' E 131°46'0 0.0
2018-Apr-16 21:27N 34°01' E 131°46'0 0.0
2018-Apr-16 18:57N 34°01' E 131°46'0 0.0
2018-Apr-16 17:27N 34°01' E 131°46'0 0.0
2018-Apr-16 16:57N 34°01' E 131°46'0 0.0
2018-Apr-16 16:09N 34°01' E 131°46'0 0.0
2018-Apr-16 15:57N 34°01' E 131°46'0 0.0
2018-Apr-16 15:27N 34°01' E 131°46'0 0.0
2018-Apr-16 14:45N 34°01' E 131°46'0 0.0
2018-Apr-16 14:27N 34°01' E 131°46'1 2.4
2018-Apr-16 14:00N 33°60' E 131°45'611.2
2018-Apr-16 13:30N 33°55' E 131°48'713.0
2018-Apr-16 12:57N 33°51' E 131°55'613.1
2018-Apr-16 12:28N 33°47' E 132°01'1111.5
2018-Apr-16 11:32N 33°50' E 132°13'113.0
2018-Apr-16 11:29N 33°50' E 132°14'612.4
2018-Apr-16 11:00N 33°50' E 132°21'812.1
2018-Apr-16 10:22N 33°53' E 132°30'712.5
2018-Apr-16 09:47N 33°55' E 132°38'312.0
2018-Apr-16 09:30N 33°57' E 132°41'  

Dump ship's entire track history